Date,TemperatureHighF,TemperatureAvgF,TemperatureLowF,DewpointHighF,DewpointAvgF,DewpointLowF,HumidityHigh,HumidityAvg,HumidityLow,PressureMaxIn,PressureMinIn,WindSpeedMaxMPH,WindSpeedAvgMPH,GustSpeedMaxMPH,PrecipitationSumIn
2013-1-1,54.1,44.8,33.5,33.1,24.6,15.2,91,51,26,30.29,30.16,23,4,23,0.00
2013-1-2,61.7,47.2,34.8,25.4,19.8,12.4,62,37,17,30.22,30.09,15,2,15,0.00
2013-1-3,64.5,51.5,37.8,22.6,14.5,7.5,50,25,13,30.24,30.10,16,2,16,0.00
2013-1-4,62.9,49.9,37.8,18.5,9.8,1.8,44,21,9,30.31,30.20,18,3,18,0.00
2013-1-5,63.5,48.2,32.4,26.6,15.3,3.8,58,31,10,30.33,30.21,11,1,11,0.00
2013-1-6,52.1,46.8,38.4,40.4,36.5,21.0,87,68,43,30.23,30.05,17,2,17,0.00
2013-1-7,60.6,48.4,41.6,39.4,29.0,16.0,87,53,19,30.13,30.01,22,5,29,0.00
2013-1-8,72.4,53.2,36.9,38.0,30.4,25.0,67,45,20,30.16,30.06,8,1,14,0.00
2013-1-9,71.3,54.2,41.4,44.0,36.5,32.0,93,55,24,30.18,30.01,8,2,11,0.00
2013-1-10,51.4,46.2,38.1,46.0,35.6,18.0,96,70,27,30.09,29.90,18,4,26,0.01
2013-1-11,48.4,35.6,28.9,27.0,7.9,-99.9,79,45,28,30.21,30.07,9,-117,12,0.00
2013-1-12,50.6,34.4,29.4,25.0,-2.2,-99.9,75,35,15,30.20,30.11,5,-167,8,0.00
2013-1-13,49.9,34.8,30.8,26.0,-1.7,-99.9,72,34,21,30.21,30.08,9,-156,11,0.00
2013-1-14,46.7,34.3,31.6,9.0,-15.0,-99.9,37,16,11,30.39,30.20,16,-146,23,0.00
2013-1-15,58.8,39.6,29.1,21.0,-1.5,-99.9,48,26,22,30.50,30.36,6,-148,10,0.00
2013-1-16,68.0,46.1,36.4,29.0,4.0,-99.9,61,27,19,30.40,30.19,6,-156,10,0.00
2013-1-17,70.6,57.1,39.1,24.0,16.7,12.0,50,23,12,30.25,30.12,15,3,16,0.00
2013-1-18,72.7,58.3,44.1,21.5,18.2,12.8,38,23,11,30.20,30.10,17,3,17,0.00
2013-1-19,72.9,59.1,43.4,24.1,14.4,7.9,41,19,9,30.24,30.12,19,4,19,0.00
2013-1-20,74.0,56.9,38.9,25.3,14.2,4.5,44,22,8,30.19,30.05,12,2,12,0.00
2013-1-21,74.8,55.0,40.1,19.6,12.8,0.5,39,21,6,30.15,30.06,16,2,16,0.00
2013-1-22,77.3,59.5,41.4,26.2,13.3,-4.6,36,19,4,30.15,30.05,12,2,12,0.00
2013-1-23,75.9,61.9,50.2,41.3,28.4,19.5,54,29,15,30.14,30.04,11,1,11,0.00
2013-1-24,64.8,57.0,50.3,54.0,47.9,37.6,94,73,49,30.22,30.11,11,1,11,0.17
2013-1-25,60.2,57.1,54.9,54.8,52.2,47.7,94,84,64,30.17,29.96,15,3,15,0.38
2013-1-26,61.9,56.7,53.1,56.3,54.0,52.0,96,91,78,30.00,29.90,9,1,9,0.01
2013-1-27,56.2,51.1,41.3,53.0,45.7,36.3,95,82,63,30.03,29.96,19,5,19,0.00
2013-1-28,53.8,44.4,35.8,38.6,32.4,27.4,93,66,38,30.22,30.03,17,2,17,0.00
2013-1-29,55.9,44.4,32.7,39.1,34.3,28.2,85,69,42,30.28,30.17,10,1,10,0.00
2013-1-30,65.5,51.4,37.0,41.4,37.9,34.3,91,64,35,30.37,30.25,12,1,12,0.00
2013-1-31,73.2,56.2,38.7,42.6,36.7,33.0,86,54,25,30.29,30.13,11,1,11,0.00
2013-2-1,75.5,58.1,40.2,43.0,37.7,22.8,83,51,15,30.22,30.11,10,1,10,0.00
2013-2-2,74.0,62.8,50.3,44.3,37.0,29.5,64,41,20,30.23,30.12,14,2,14,0.00
2013-2-3,71.0,60.3,50.0,48.2,44.7,38.1,81,58,31,30.16,29.99,19,2,19,0.00
2013-2-4,72.0,56.4,42.8,48.1,43.7,36.8,90,66,29,30.11,29.98,13,1,13,0.00
2013-2-5,58.3,49.5,41.5,49.5,45.4,39.3,95,86,71,30.10,29.98,15,2,15,0.00
2013-2-6,61.2,52.3,46.0,47.2,45.8,44.1,95,80,56,30.13,30.01,9,2,9,0.00
2013-2-7,61.4,49.2,39.4,50.1,43.7,38.4,97,83,59,30.16,30.00,15,2,15,0.00
2013-2-8,47.9,41.6,36.2,41.9,37.6,34.1,93,86,74,30.02,29.91,17,3,17,0.45
2013-2-9,50.9,42.8,32.4,38.5,35.3,31.1,96,76,52,30.15,29.96,12,1,12,0.00
2013-2-10,50.6,42.9,34.7,39.4,33.0,-99.9,95,74,55,30.15,30.03,8,-27,8,0.00
2013-2-11,55.9,46.0,35.1,41.7,24.3,6.0,96,53,14,30.28,30.08,23,4,23,0.00
2013-2-12,59.7,42.2,31.6,37.0,12.4,-99.9,75,43,21,30.38,30.26,11,-118,11,0.00
2013-2-13,68.3,50.4,33.8,36.5,31.8,22.6,86,55,19,30.31,30.15,12,2,12,0.00
2013-2-14,73.5,56.8,37.3,40.2,30.5,21.5,84,44,16,30.23,30.09,14,2,14,0.00
2013-2-15,73.5,62.3,48.5,30.3,20.5,9.2,45,23,9,30.24,30.16,22,4,22,0.00
2013-2-16,76.4,63.1,47.7,26.5,17.1,3.6,43,19,7,30.22,29.99,20,3,20,0.00
2013-2-17,68.5,52.8,38.5,44.5,31.7,19.9,95,50,17,30.05,29.91,13,2,13,0.00
2013-2-18,61.4,48.6,39.9,45.7,42.2,37.5,97,81,43,30.09,29.95,11,2,11,0.00
2013-2-19,49.2,45.4,39.7,44.0,39.8,36.5,93,81,71,30.01,29.73,13,3,15,0.38
2013-2-20,53.0,43.3,35.8,38.0,34.1,30.0,93,71,43,30.05,29.70,14,3,21,0.04
2013-2-21,55.4,45.3,36.3,39.0,33.7,24.9,89,67,31,30.14,30.00,15,2,15,0.00
2013-2-22,61.6,47.9,32.9,38.7,32.8,22.8,92,60,23,30.24,30.14,12,2,12,0.00
2013-2-23,61.2,49.5,34.9,41.4,34.0,24.0,87,59,30,30.21,29.92,30,3,30,0.00
2013-2-24,61.8,52.5,41.4,32.2,6.7,-4.9,61,18,7,30.23,30.01,25,4,25,0.00
2013-2-25,65.0,53.2,32.9,29.9,19.4,5.5,62,31,11,30.26,30.10,13,2,13,0.00
2013-2-26,68.8,52.8,32.3,31.4,20.1,8.1,80,37,11,30.18,30.01,19,3,19,0.00
2013-2-27,68.8,57.8,47.1,19.3,11.2,3.3,29,16,9,30.31,30.17,22,4,22,0.00
2013-2-28,74.2,59.5,44.1,25.9,14.9,5.0,38,20,8,30.35,30.26,11,1,11,0.00
2013-3-1,79.8,63.5,43.2,33.6,22.7,15.0,51,25,10,30.34,30.19,22,4,22,0.00
2013-3-2,82.3,64.6,44.7,32.7,27.1,11.6,56,28,7,30.26,30.07,15,2,15,0.00
2013-3-3,72.3,59.6,48.2,46.1,34.8,23.6,87,43,17,30.11,29.96,15,2,15,0.00
2013-3-4,67.0,55.6,45.9,48.4,45.6,43.4,93,71,46,30.11,30.01,10,2,10,0.00
2013-3-5,66.5,53.0,41.8,51.4,46.9,40.7,97,81,49,30.13,30.01,16,3,16,0.00
2013-3-6,60.4,52.0,45.2,47.0,43.2,40.8,92,74,50,30.16,30.02,16,3,16,0.00
2013-3-7,52.2,48.5,44.9,46.7,44.9,41.8,94,87,76,30.04,29.89,10,2,10,0.08
2013-3-8,49.9,44.3,40.7,43.0,40.2,35.3,94,86,60,30.07,29.79,21,3,21,0.55
2013-3-9,58.9,49.9,43.7,45.3,42.8,40.8,95,78,54,30.25,30.06,14,2,14,0.06
2013-3-10,71.7,55.4,38.9,45.0,34.7,17.8,94,55,14,30.30,30.17,16,3,16,0.00
2013-3-11,78.6,58.7,39.7,41.5,33.2,13.4,81,46,9,30.22,30.05,12,1,12,0.00
2013-3-12,83.7,63.9,43.6,45.4,39.8,28.8,85,49,15,30.11,30.00,14,2,14,0.00
2013-3-13,88.8,69.0,48.0,49.9,41.0,28.8,76,44,12,30.13,30.01,13,2,13,0.00
2013-3-14,91.8,70.3,49.9,49.0,41.4,27.1,78,42,11,30.09,29.99,18,2,18,0.00
2013-3-15,85.3,67.6,51.8,49.2,41.5,28.4,74,43,17,30.03,29.90,16,2,16,0.00
2013-3-16,75.3,61.2,48.5,49.2,43.6,33.8,85,55,29,29.94,29.84,15,2,15,0.00
2013-3-17,71.5,56.9,47.3,52.8,48.3,43.1,97,76,41,30.00,29.92,13,2,13,0.00
2013-3-18,66.0,55.2,48.9,51.1,49.2,47.6,97,82,54,30.10,29.99,14,3,14,0.00
2013-3-19,68.2,56.7,48.0,51.6,49.1,45.8,94,77,52,30.12,30.05,14,2,14,0.00
2013-3-20,70.0,59.8,49.7,51.5,49.1,45.3,91,70,43,30.11,29.97,14,2,14,0.00
2013-3-21,71.2,59.2,48.3,50.4,48.2,45.7,91,69,44,29.97,29.80,14,2,14,0.00
2013-3-22,71.8,58.2,48.5,50.0,47.6,41.6,95,71,37,29.93,29.80,18,3,18,0.00
2013-3-23,76.3,59.4,44.0,50.5,44.2,30.3,94,65,20,30.02,29.91,14,3,14,0.00
2013-3-24,78.8,62.3,46.0,49.6,42.1,24.6,91,56,15,30.02,29.87,15,2,15,0.00
2013-3-25,81.2,63.8,47.4,47.5,42.2,27.3,83,51,16,29.98,29.86,15,2,15,0.00
2013-3-26,74.5,61.0,48.5,48.8,44.3,38.2,81,57,33,29.96,29.87,16,2,16,0.00
2013-3-27,71.8,58.3,47.7,51.4,47.5,42.1,94,70,39,30.05,29.92,17,2,17,0.00
2013-3-28,75.3,61.2,47.2,50.8,46.8,40.9,91,63,31,30.08,30.00,14,2,14,0.00
2013-3-29,78.8,63.8,48.6,52.2,48.2,40.8,90,61,27,30.11,30.01,18,3,18,0.00
2013-3-30,75.8,62.8,52.2,54.0,48.4,35.3,94,63,28,30.11,30.01,17,4,17,0.00
2013-3-31,69.7,57.7,49.7,53.3,48.9,43.7,90,74,48,30.12,30.02,22,4,22,0.00
2013-4-1,63.4,56.0,50.8,50.2,47.3,43.8,89,74,53,30.17,30.07,17,5,17,0.00
2013-4-2,72.5,60.0,50.4,50.8,48.9,44.1,90,69,37,30.10,29.97,14,3,14,0.00
2013-4-3,82.8,64.1,48.7,53.0,48.3,39.4,90,62,23,30.09,29.97,17,2,17,0.00
2013-4-4,76.0,62.2,50.7,55.1,49.3,37.5,96,68,25,30.09,30.00,16,3,16,0.00
2013-4-5,68.5,58.6,52.3,53.4,51.7,49.8,95,80,52,30.09,29.98,16,3,16,0.00
2013-4-6,70.3,59.7,52.5,53.5,51.4,49.8,92,75,50,30.08,29.95,16,3,16,0.00
2013-4-7,72.2,58.5,47.9,53.4,50.5,46.1,96,77,44,29.99,29.82,15,2,15,0.00
2013-4-8,59.7,54.2,47.9,50.9,44.8,33.3,91,72,37,29.84,29.65,22,4,22,0.00
2013-4-9,71.8,57.0,41.5,43.2,29.9,6.9,93,46,8,30.04,29.84,27,5,27,0.00
2013-4-10,80.7,64.2,47.0,34.6,23.0,1.3,60,27,5,30.10,29.96,29,5,29,0.00
2013-4-11,79.8,62.0,45.7,49.4,37.1,28.4,87,44,18,30.03,29.75,16,2,16,0.00
2013-4-12,77.9,60.9,50.2,53.4,50.7,48.3,94,73,41,29.89,29.75,16,3,16,0.00
2013-4-13,70.9,57.4,49.1,55.0,51.4,47.5,96,82,56,29.90,29.80,16,3,16,0.00
2013-4-14,59.9,53.3,50.3,50.3,47.1,45.4,89,80,64,29.89,29.81,11,4,12,0.00
2013-4-15,63.9,56.9,50.2,49.5,46.7,43.8,90,70,52,29.91,29.82,13,4,13,0.00
2013-4-16,60.7,52.4,44.2,44.0,39.0,34.8,86,62,40,30.00,29.87,18,4,18,0.00
2013-4-17,68.8,56.4,41.8,35.8,20.8,1.1,75,31,7,30.16,30.00,24,6,24,0.00
2013-4-18,74.3,61.5,46.0,26.7,13.7,-2.2,44,19,5,30.24,30.12,24,3,24,0.00
2013-4-19,82.5,65.2,44.5,25.7,16.2,2.4,44,19,6,30.19,29.97,20,3,20,0.00
2013-4-20,89.3,69.1,49.1,44.6,30.7,22.0,42,26,9,30.01,29.85,20,2,20,0.00
2013-4-21,86.0,70.0,52.2,47.3,38.2,27.7,65,35,14,29.99,29.89,18,3,18,0.00
2013-4-22,79.2,63.5,50.8,52.5,47.1,35.3,95,60,23,29.99,29.85,16,3,16,0.00
2013-4-23,80.7,63.3,51.6,52.5,49.7,44.4,93,66,28,29.95,29.82,13,4,15,0.00
2013-4-24,68.3,57.9,52.9,54.0,51.1,46.6,92,79,60,29.98,29.87,18,4,18,0.00
2013-4-25,68.3,58.6,52.1,49.8,48.0,46.1,88,69,49,30.12,29.96,13,3,13,0.00
2013-4-26,80.0,63.9,46.8,50.5,47.3,42.1,86,58,31,30.17,30.07,15,2,15,0.00
2013-4-27,84.5,69.1,51.1,54.7,49.8,41.6,83,54,25,30.15,29.97,22,3,22,0.00
2013-4-28,86.0,69.7,53.2,55.6,52.1,44.8,85,58,25,30.00,29.83,18,3,18,0.00
2013-4-29,85.2,68.2,53.8,56.7,53.4,47.0,93,64,29,29.87,29.74,16,3,16,0.00
2013-4-30,75.1,60.7,53.1,54.8,52.6,51.3,95,77,47,29.89,29.77,16,3,16,0.00
2013-5-1,86.8,68.4,56.5,54.7,51.3,37.9,87,60,18,30.07,29.89,16,3,16,0.00
2013-5-2,87.1,69.1,54.5,53.0,14.4,-29.0,86,27,1,30.16,30.01,13,3,19,0.00
2013-5-3,92.6,75.2,54.5,28.5,13.5,-9.8,27,12,2,30.04,29.76,19,3,19,0.00
2013-5-4,83.3,66.4,53.6,51.4,37.4,22.1,85,39,11,29.84,29.68,19,3,19,0.00
2013-5-5,66.0,58.4,53.3,50.4,47.7,45.3,90,69,49,29.97,29.83,22,5,22,0.00
2013-5-6,61.7,56.3,52.5,54.6,50.8,46.3,95,83,59,30.04,29.93,16,4,16,0.23
2013-5-7,64.8,57.5,51.2,50.3,47.6,44.3,89,71,50,30.09,30.00,16,3,16,0.03
2013-5-8,68.6,59.5,51.4,50.7,48.3,44.3,90,68,50,30.10,30.04,14,4,20,0.00
2013-5-9,74.5,61.0,48.9,55.1,49.7,44.4,86,68,44,30.11,30.00,16,2,16,0.00
2013-5-10,83.8,67.8,54.1,56.6,54.0,50.6,92,65,35,30.08,29.98,20,4,20,0.00
2013-5-11,95.9,75.9,56.8,57.3,49.6,34.1,87,48,12,30.08,29.94,22,3,22,0.00
2013-5-12,99.2,81.5,62.0,50.5,43.6,25.9,63,32,8,30.05,29.88,25,3,25,0.00
2013-5-13,98.7,83.4,64.8,51.3,43.8,31.5,54,28,10,29.95,29.84,21,3,21,0.00
2013-5-14,87.3,74.7,60.7,51.7,43.5,23.6,72,36,11,29.96,29.84,19,3,19,0.00
2013-5-15,80.0,65.9,54.0,54.8,52.3,45.6,95,65,32,30.01,29.91,15,3,15,0.00
2013-5-16,75.8,62.5,53.9,55.6,53.4,51.1,93,74,47,29.97,29.85,17,3,17,0.00
2013-5-17,72.8,62.8,56.5,55.0,53.2,51.3,87,72,49,30.00,29.90,17,4,17,0.00
2013-5-18,75.5,64.7,57.3,54.9,53.5,51.6,88,69,45,30.02,29.95,15,4,15,0.00
2013-5-19,81.2,66.6,53.6,56.0,53.0,48.6,90,65,36,29.98,29.86,15,3,15,0.00
2013-5-20,92.4,74.3,56.1,57.6,48.7,27.8,85,50,10,29.94,29.83,16,3,20,0.00
2013-5-21,86.5,71.0,57.4,59.3,53.6,36.3,94,60,23,29.91,29.78,19,4,19,0.00
2013-5-22,79.7,65.3,56.8,56.5,54.0,49.0,95,70,41,29.83,29.72,18,4,18,0.00
2013-5-23,73.8,62.4,54.8,52.6,50.2,48.3,84,66,43,29.93,29.81,16,4,16,0.00
2013-5-24,76.5,63.5,55.0,53.1,50.5,48.2,86,65,40,29.98,29.90,17,4,17,0.00
2013-5-25,75.3,61.9,51.2,51.9,49.1,44.2,89,66,37,30.02,29.94,16,3,16,0.00
2013-5-26,75.0,61.8,51.0,53.9,51.3,48.6,93,71,45,30.05,29.96,17,3,17,0.00
2013-5-27,78.7,64.2,52.5,56.0,52.9,49.2,89,69,41,30.00,29.85,18,3,18,0.00
2013-5-28,75.5,63.9,55.7,57.8,54.9,52.9,91,74,53,29.88,29.75,15,3,15,0.00
2013-5-29,83.5,69.2,55.6,58.3,55.1,52.3,92,64,38,29.81,29.70,20,4,20,0.00
2013-5-30,86.8,71.2,57.2,58.7,55.5,51.6,89,61,31,29.86,29.75,17,3,17,0.00
2013-5-31,86.0,70.7,58.0,61.0,58.3,56.0,95,68,37,29.88,29.78,16,4,16,0.00
2013-6-1,98.5,76.8,60.2,62.1,58.9,48.6,90,60,23,29.85,29.68,23,4,23,0.00
2013-6-2,84.5,70.2,59.7,63.4,59.4,55.6,90,71,45,29.79,29.70,18,4,18,0.00
2013-6-3,82.3,66.4,57.4,58.6,56.2,53.6,93,73,40,29.88,29.77,17,4,17,0.00
2013-6-4,79.4,65.8,58.0,58.6,56.2,54.8,90,74,45,29.96,29.86,15,4,15,0.00
2013-6-5,82.3,65.9,55.9,58.7,55.3,50.6,95,72,36,29.99,29.87,16,3,16,0.00
2013-6-6,83.3,68.1,55.1,59.1,55.7,52.9,96,68,38,29.93,29.83,15,4,15,0.00
2013-6-7,85.2,68.0,55.3,59.6,56.4,53.0,97,71,36,29.89,29.75,14,4,14,0.00
2013-6-8,86.0,67.7,56.6,61.9,57.8,55.1,96,74,41,29.88,29.77,15,3,19,0.00
2013-6-9,87.3,68.3,56.2,61.1,57.2,54.8,95,71,36,29.90,29.82,16,4,16,0.00
2013-6-10,82.5,67.0,55.7,57.6,54.6,51.1,94,68,37,29.93,29.86,16,3,16,0.00
2013-6-11,92.9,74.2,57.8,59.9,53.4,36.8,87,55,18,29.93,29.83,19,3,19,0.00
2013-6-12,80.3,68.8,58.3,61.2,58.5,55.6,95,72,46,29.97,29.88,18,5,18,0.00
2013-6-13,85.5,69.3,57.1,60.3,56.8,53.1,95,69,35,29.99,29.86,16,4,16,0.00
2013-6-14,85.8,64.0,55.4,59.2,55.9,52.1,90,77,36,29.90,29.79,12,2,17,0.00
2013-6-15,82.2,66.4,55.2,57.0,54.5,52.0,94,69,37,29.96,29.86,13,4,18,0.00
2013-6-16,84.7,68.6,54.3,57.0,54.4,49.0,95,65,33,30.01,29.92,12,4,16,0.00
2013-6-17,87.6,73.0,57.9,58.0,54.8,47.0,86,56,27,29.95,29.85,14,3,17,0.00
2013-6-18,86.0,72.8,60.3,57.0,53.9,47.0,80,55,27,29.88,29.79,17,3,20,0.00
2013-6-19,83.4,69.6,57.2,58.0,55.0,50.0,93,63,34,29.84,29.77,11,3,16,0.00
2013-6-20,85.7,72.2,57.6,55.0,51.9,41.0,79,52,22,29.84,29.77,15,3,17,0.00
2013-6-21,84.6,71.9,58.2,52.0,48.3,43.0,74,46,26,29.88,29.80,15,4,18,0.00
2013-6-22,83.5,71.4,59.0,57.0,53.0,48.0,82,54,36,29.88,29.78,11,3,16,0.00
2013-6-23,79.6,65.6,56.9,58.0,55.9,54.0,94,73,45,29.85,29.75,15,4,16,0.00
2013-6-24,75.3,65.3,56.8,58.6,55.5,53.3,91,72,52,29.93,29.82,14,4,14,0.00
2013-6-25,81.5,70.6,59.1,61.7,58.6,55.5,89,67,48,29.98,29.88,16,3,16,0.00
2013-6-26,92.7,80.4,63.6,62.3,60.0,57.6,83,53,33,29.95,29.88,19,4,19,0.00
2013-6-27,97.5,80.5,68.5,63.5,59.7,54.3,74,52,27,29.99,29.91,16,3,19,0.00
2013-6-28,98.8,84.8,67.8,62.1,59.3,56.8,70,45,26,29.96,29.83,17,3,17,0.00
2013-6-29,103.8,87.1,69.7,62.5,59.3,46.0,71,43,16,29.86,29.71,18,3,18,0.00
2013-6-30,107.3,87.1,72.0,64.6,60.2,44.8,67,44,13,29.77,29.67,20,3,20,0.00
2013-7-1,97.8,84.5,72.6,64.6,60.5,50.4,73,48,23,29.85,29.75,17,4,17,0.00
2013-7-2,96.8,80.6,71.0,63.0,59.0,53.5,67,50,24,29.92,29.84,19,4,19,0.00
2013-7-3,94.3,79.1,67.9,63.8,58.5,46.5,80,53,25,29.90,29.75,17,3,17,0.00
2013-7-4,95.5,79.9,67.7,61.0,56.8,49.3,76,49,24,29.80,29.69,17,3,17,0.00
2013-7-5,90.0,74.8,62.4,62.4,59.3,50.5,89,62,29,29.81,29.72,18,4,18,0.00
2013-7-6,90.2,73.7,61.0,64.2,61.1,56.9,94,68,35,29.80,29.71,13,4,13,0.00
2013-7-7,94.3,77.2,61.4,64.4,59.3,45.7,93,60,20,29.83,29.73,15,3,15,0.00
2013-7-8,98.5,82.5,64.1,61.7,57.3,50.3,83,47,22,29.90,29.81,15,3,15,0.00
2013-7-9,102.9,84.7,70.4,67.5,55.5,38.1,56,39,12,29.94,29.87,18,3,18,0.00
2013-7-10,87.7,77.9,71.4,62.7,59.8,55.3,68,55,34,29.93,29.86,15,3,15,0.00
2013-7-11,83.2,73.4,69.4,65.8,63.0,56.0,82,70,51,29.95,29.85,12,2,12,0.04
2013-7-12,89.6,77.2,67.7,66.7,62.9,54.5,87,64,36,29.91,29.81,15,3,15,0.00
2013-7-13,92.3,77.8,63.2,62.8,57.4,48.3,86,54,25,29.92,29.82,18,3,18,0.00
2013-7-14,92.7,79.6,68.9,60.4,57.8,51.9,72,50,27,29.89,29.78,19,3,19,0.00
2013-7-15,92.2,79.0,66.9,61.6,55.9,46.6,78,48,24,29.84,29.76,18,4,18,0.00
2013-7-16,91.3,77.0,61.9,51.7,44.0,28.0,61,35,12,29.95,29.82,20,3,20,0.00
2013-7-17,93.3,77.3,57.9,51.9,42.0,20.9,67,34,8,30.00,29.91,17,3,17,0.00
2013-7-18,93.3,77.3,60.7,57.7,45.4,29.0,61,35,12,29.97,29.82,17,3,17,0.00
2013-7-19,94.5,78.4,65.0,60.5,57.2,51.5,76,51,27,29.87,29.76,17,3,17,0.00
2013-7-20,81.5,70.6,62.0,69.9,63.1,58.8,90,78,60,29.85,29.75,13,4,13,0.01
2013-7-21,79.0,72.4,66.8,66.0,63.6,58.3,87,75,55,29.92,29.77,13,3,13,0.00
2013-7-22,89.0,76.1,65.0,66.6,63.5,60.1,89,67,45,29.95,29.87,20,4,20,0.00
2013-7-23,88.8,75.9,65.0,63.5,60.8,51.6,84,62,31,29.99,29.88,19,4,19,0.00
2013-7-24,90.2,76.6,65.2,62.9,59.4,54.5,73,57,37,29.94,29.84,18,4,18,0.00
2013-7-25,92.3,78.1,64.5,62.0,59.3,56.5,77,55,34,29.97,29.87,16,3,16,0.00
2013-7-26,85.0,75.3,66.2,68.0,62.9,59.1,90,66,51,30.05,29.94,14,3,14,0.06
2013-7-27,89.8,76.5,65.9,64.2,61.2,58.6,80,61,39,29.98,29.83,20,4,20,0.00
2013-7-28,88.2,72.2,59.8,62.9,58.6,53.2,94,66,37,29.89,29.80,20,4,20,0.00
2013-7-29,87.5,70.5,57.1,61.1,56.7,53.3,96,66,32,30.01,29.88,14,4,14,0.00
2013-7-30,87.3,71.6,59.1,60.1,57.1,55.1,87,63,36,30.08,29.97,17,4,17,0.00
2013-7-31,85.0,69.0,58.1,60.0,57.1,54.6,89,68,41,30.07,29.94,16,4,16,0.00
2013-8-1,83.8,67.7,55.7,58.4,55.1,47.6,94,68,30,30.02,29.88,15,3,15,0.00
2013-8-2,86.0,70.9,56.8,59.0,56.3,53.1,91,63,37,29.95,29.86,16,3,16,0.00
2013-8-3,86.0,70.5,57.2,61.1,57.5,54.1,95,67,36,29.97,29.88,16,3,16,0.00
2013-8-4,88.6,72.7,58.2,61.5,56.0,43.9,94,61,28,29.98,29.89,18,3,18,0.00
2013-8-5,90.3,74.6,59.5,59.6,51.7,29.9,85,51,15,29.97,29.88,15,3,15,0.00
2013-8-6,88.2,71.9,56.6,59.4,51.4,36.8,94,55,18,30.00,29.92,19,3,19,0.00
2013-8-7,87.0,71.9,58.3,58.2,50.7,36.6,88,54,20,30.04,29.94,13,3,13,0.00
2013-8-8,87.8,72.6,57.4,56.7,49.0,27.1,81,50,15,29.97,29.86,16,3,16,0.00
2013-8-9,84.4,70.0,57.1,58.2,54.0,45.1,90,61,32,29.95,29.86,16,3,17,0.00
2013-8-10,82.0,68.4,56.1,58.2,53.9,41.3,94,64,25,30.00,29.92,17,3,17,0.00
2013-8-11,87.2,72.1,57.3,58.3,54.6,46.8,90,58,26,29.98,29.86,16,3,16,0.00
2013-8-12,90.3,73.5,59.3,59.3,55.8,44.3,88,59,22,29.94,29.85,15,3,15,0.00
2013-8-13,93.1,75.6,59.6,61.0,57.6,50.5,91,59,25,29.94,29.83,15,3,15,0.00
2013-8-14,98.3,78.6,61.5,61.8,58.5,47.6,87,56,20,29.89,29.77,18,4,18,0.00
2013-8-15,97.7,80.6,64.9,61.0,55.9,40.6,82,48,19,29.91,29.82,18,3,18,0.00
2013-8-16,95.3,81.2,67.3,61.1,56.1,43.3,76,46,21,29.92,29.85,18,3,18,0.00
2013-8-17,96.8,81.7,67.6,57.7,54.1,42.0,67,41,23,29.92,29.76,17,3,17,0.00
2013-8-18,96.8,80.9,68.2,59.6,53.9,45.3,64,42,23,29.86,29.75,17,4,17,0.00
2013-8-19,91.5,77.2,67.6,64.0,60.8,58.3,76,59,37,29.88,29.79,16,4,16,0.00
2013-8-20,94.0,79.2,66.2,62.7,58.0,46.2,80,52,20,29.88,29.79,18,3,18,0.00
2013-8-21,98.5,81.5,63.7,58.2,51.4,33.1,76,40,15,29.89,29.78,19,4,19,0.00
2013-8-22,98.0,81.7,67.5,53.0,44.7,36.4,50,30,14,29.89,29.76,13,2,20,0.00
2013-8-23,97.3,81.4,66.1,51.0,44.8,37.0,50,30,14,29.84,29.68,16,3,20,0.00
2013-8-24,97.5,80.8,63.5,63.2,47.8,22.5,61,37,8,29.84,29.71,17,3,17,0.00
2013-8-25,96.0,81.4,68.1,64.1,57.0,45.8,66,46,22,29.89,29.78,18,4,18,0.00
2013-8-26,86.7,80.6,76.3,67.9,64.3,59.9,72,58,48,29.89,29.79,15,4,15,0.00
2013-8-27,95.8,82.8,71.1,64.9,61.0,52.2,72,49,33,29.82,29.72,18,3,18,0.00
2013-8-28,97.5,84.0,70.5,62.3,57.8,49.3,58,42,31,29.87,29.75,18,3,18,0.00
2013-8-29,99.2,85.4,73.8,72.1,65.3,55.0,73,52,33,29.92,29.83,20,3,20,0.00
2013-8-30,95.4,83.1,77.2,74.1,71.1,65.9,88,69,40,29.94,29.85,20,4,20,0.08
2013-8-31,92.0,81.8,75.2,74.0,70.2,67.1,89,69,48,29.94,29.83,18,3,18,0.00
2013-9-1,93.0,80.7,72.3,70.1,67.8,63.4,86,67,43,29.90,29.79,18,3,18,0.00
2013-9-2,93.1,83.5,69.3,67.7,65.0,61.3,84,55,37,29.89,29.76,14,3,14,0.00
2013-9-3,96.7,84.9,73.6,66.7,62.6,58.3,74,50,30,29.87,29.77,18,3,18,0.00
2013-9-4,100.7,85.8,72.7,65.8,60.0,52.4,66,44,28,29.88,29.78,16,3,23,0.00
2013-9-5,100.3,87.5,74.0,64.1,56.7,37.5,57,37,19,29.86,29.77,16,3,16,0.00
2013-9-6,99.0,86.3,74.3,58.8,53.4,41.6,52,34,23,29.84,29.74,18,2,18,0.00
2013-9-7,98.7,85.6,77.3,67.6,59.3,45.2,58,42,27,29.84,29.75,27,3,27,0.00
2013-9-8,94.3,81.4,69.0,65.2,54.7,41.8,76,44,17,29.82,29.70,17,3,17,0.00
2013-9-9,89.2,78.3,70.5,55.4,51.7,43.6,53,41,24,29.77,29.68,18,3,18,0.00
2013-9-10,86.5,73.0,61.8,58.5,55.7,51.6,83,57,33,29.91,29.76,23,3,23,0.00
2013-9-11,85.8,70.6,59.1,59.5,57.2,53.8,89,65,36,29.97,29.88,17,3,17,0.00
2013-9-12,92.3,75.9,60.0,59.1,52.6,34.3,86,51,14,29.92,29.79,15,2,15,0.00
2013-9-13,93.3,77.8,60.5,57.4,50.3,38.8,69,42,17,29.83,29.64,19,2,19,0.00
2013-9-14,97.5,81.4,64.4,59.5,55.1,48.5,72,44,20,29.70,29.59,17,3,17,0.00
2013-9-15,99.0,81.9,65.6,58.3,52.9,38.1,71,41,14,29.75,29.65,22,3,22,0.00
2013-9-16,98.0,81.1,65.2,57.5,49.8,41.3,59,37,17,29.80,29.68,19,3,19,0.00
2013-9-17,87.7,74.3,61.1,57.4,51.4,43.1,77,48,23,29.77,29.66,16,3,16,0.00
2013-9-18,82.0,67.1,56.5,59.5,55.1,46.6,95,69,31,29.79,29.71,15,3,15,0.00
2013-9-19,84.8,69.5,57.3,60.4,57.3,52.6,88,68,40,29.82,29.72,16,3,16,0.00
2013-9-20,77.2,65.0,60.3,62.5,59.9,58.0,95,85,59,29.87,29.80,15,3,15,0.00
2013-9-21,77.5,66.1,59.5,59.6,57.1,53.1,94,75,44,29.89,29.77,15,3,15,0.00
2013-9-22,76.5,65.2,55.6,56.0,52.0,45.6,93,66,36,29.85,29.76,13,2,13,0.00
2013-9-23,91.3,73.0,53.8,54.7,45.1,35.1,83,45,14,29.90,29.81,16,2,16,0.00
2013-9-24,88.8,73.6,56.8,52.1,42.8,33.5,67,37,15,29.92,29.81,21,3,21,0.00
2013-9-25,80.9,64.2,54.0,56.0,49.5,44.1,81,60,32,29.85,29.67,11,2,14,0.00
2013-9-26,71.1,61.7,55.7,53.0,46.9,37.0,83,61,29,29.91,29.72,16,4,19,0.00
2013-9-27,80.9,65.3,48.5,46.0,34.2,21.0,80,40,11,30.02,29.90,18,3,19,0.00
2013-9-28,87.1,69.6,51.0,35.0,28.4,14.0,48,26,7,30.06,29.95,13,2,16,0.00
2013-9-29,86.5,70.4,51.2,40.0,32.2,22.0,53,28,10,30.06,29.95,11,2,14,0.00
2013-9-30,86.2,69.9,52.0,49.0,38.6,30.0,55,35,14,30.00,29.85,11,2,15,0.00
2013-10-1,85.3,69.4,53.6,57.0,46.5,38.0,78,48,21,29.93,29.84,9,2,15,0.00
2013-10-2,76.7,64.1,54.8,59.0,55.7,53.0,96,77,44,29.96,29.85,11,2,13,0.00
2013-10-3,72.3,63.6,57.6,57.0,54.6,52.0,89,74,50,29.92,29.80,10,3,15,0.00
2013-10-4,81.2,66.7,52.7,55.0,30.8,10.0,94,42,7,30.09,29.89,12,3,18,0.00
2013-10-5,83.4,69.2,51.6,27.0,17.6,8.0,38,16,6,30.18,30.07,13,4,18,0.00
2013-10-6,89.0,72.1,52.7,28.0,17.1,4.0,28,15,4,30.11,29.96,9,2,12,0.00
2013-10-7,84.7,69.2,55.7,46.0,29.2,13.0,57,26,7,29.99,29.88,12,2,16,0.00
2013-10-8,75.7,62.0,49.7,53.0,43.9,36.0,79,55,27,29.92,29.79,12,2,17,0.00
2013-10-9,60.6,53.5,45.9,51.4,47.5,43.6,94,81,55,29.83,29.72,22,4,22,0.68
2013-10-10,63.7,53.5,43.3,47.9,45.1,41.7,95,75,50,30.05,29.82,10,1,10,0.00
2013-10-11,74.3,59.6,46.2,52.1,47.5,42.9,93,68,33,30.07,29.94,14,2,14,0.00
2013-10-12,75.0,62.2,48.2,53.4,47.8,41.8,91,64,31,29.99,29.88,15,2,15,0.00
2013-10-13,69.3,59.0,52.6,53.0,51.4,48.4,96,78,48,30.03,29.93,11,2,11,0.00
2013-10-14,80.3,65.1,46.9,52.5,38.0,27.0,94,48,15,30.05,29.92,20,2,20,0.00
2013-10-15,81.5,68.2,51.8,38.0,30.5,22.7,54,28,12,30.01,29.88,10,2,15,0.00
2013-10-16,80.7,68.8,57.2,32.7,25.3,13.2,38,21,8,30.09,29.98,12,2,12,0.00
2013-10-17,80.8,63.4,47.7,41.5,29.1,-99.9,59,33,12,30.06,29.91,17,-26,17,0.00
2013-10-18,85.2,67.0,47.9,47.7,38.4,26.5,74,42,12,30.03,29.93,11,2,12,0.00
2013-10-19,87.0,62.6,48.9,48.0,34.7,10.0,62,42,6,30.04,29.94,11,1,14,0.00
2013-10-20,81.2,65.2,48.7,50.0,40.0,29.0,73,45,16,29.98,29.88,9,2,15,0.00
2013-10-21,81.5,64.9,48.3,50.0,43.8,34.0,83,53,18,29.98,29.89,10,2,14,0.00
2013-10-22,87.7,66.4,48.7,55.0,45.2,22.0,88,54,9,30.00,29.88,13,2,16,0.00
2013-10-23,70.3,58.3,52.3,56.0,53.3,51.0,97,85,58,29.98,29.89,9,2,13,0.00
2013-10-24,66.7,58.8,54.3,53.0,52.8,52.0,93,81,61,30.06,29.96,7,2,13,0.00
2013-10-25,73.3,60.0,52.0,58.0,52.6,49.0,97,79,46,30.13,30.02,12,1,15,0.00
2013-10-26,89.0,68.3,49.4,54.0,44.3,30.0,79,49,12,30.11,29.96,10,1,14,0.00
2013-10-27,80.8,64.2,51.1,55.0,44.8,35.0,88,54,20,29.98,29.78,10,2,15,0.00
2013-10-28,60.4,55.0,49.2,52.0,48.7,45.0,92,80,60,29.95,29.81,12,4,19,0.09
2013-10-29,61.3,53.0,45.4,50.0,45.2,39.0,96,77,44,30.03,29.94,10,3,14,0.01
2013-10-30,68.8,56.7,46.3,49.0,44.6,38.0,92,68,35,30.08,29.99,8,2,12,0.00
2013-10-31,77.7,60.3,42.5,45.0,33.9,24.0,85,46,14,30.13,30.01,6,1,10,0.00
2013-11-1,82.3,66.1,46.6,35.9,30.0,23.9,56,30,13,30.14,29.97,16,2,16,0.00
2013-11-2,80.3,63.8,49.1,51.8,34.1,24.4,87,38,13,30.03,29.85,18,2,18,0.00
2013-11-3,67.8,55.2,44.5,52.2,47.8,41.2,95,78,40,29.94,29.82,11,2,11,0.00
2013-11-4,60.9,56.0,52.8,51.3,49.1,47.1,87,78,64,29.96,29.81,11,2,11,0.00
2013-11-5,70.0,57.0,42.9,49.3,25.4,7.7,94,42,10,30.20,29.96,18,2,18,0.00
2013-11-6,77.7,61.8,43.9,22.3,10.5,-6.4,38,17,4,30.26,30.16,17,2,17,0.00
2013-11-7,82.3,67.9,52.9,26.2,14.0,-7.0,28,15,3,30.16,30.01,15,3,15,0.00
2013-11-8,79.3,62.3,46.7,36.7,26.5,11.6,56,30,8,30.05,29.94,10,1,10,0.00
2013-11-9,79.5,62.3,46.0,36.1,28.7,5.7,63,36,6,30.10,30.00,11,1,11,0.00
2013-11-10,78.3,61.1,47.8,48.7,29.9,4.7,75,39,7,30.16,30.05,8,1,8,0.00
2013-11-11,81.5,62.3,44.2,43.1,36.1,24.2,69,43,13,30.14,30.03,16,2,16,0.00
2013-11-12,80.4,64.9,48.9,41.3,36.4,29.0,69,39,17,30.19,30.09,8,0,8,0.00
2013-11-13,88.3,70.2,50.6,39.9,30.3,21.3,56,28,10,30.10,29.91,12,1,12,0.00
2013-11-14,87.0,67.9,51.2,37.6,31.4,23.0,49,29,10,29.97,29.77,14,1,14,0.00
2013-11-15,62.7,57.0,51.2,51.8,47.4,36.0,88,72,43,29.77,29.67,15,2,15,0.00
2013-11-16,57.2,54.6,53.0,51.5,49.4,44.8,91,83,71,29.97,29.77,8,1,8,0.00
2013-11-17,65.5,56.2,47.4,50.3,47.4,44.3,89,74,51,30.11,29.96,9,1,9,0.00
2013-11-18,64.9,54.3,43.1,51.3,47.6,40.8,93,80,56,30.18,30.06,13,3,13,0.00
2013-11-19,61.3,56.2,53.6,51.3,49.5,46.8,89,79,60,30.11,29.96,11,2,11,0.00
2013-11-20,57.9,54.7,52.2,52.1,50.3,48.6,94,85,74,29.99,29.91,6,0,6,0.09
2013-11-21,58.4,54.2,50.7,55.8,52.6,48.2,97,94,86,29.91,29.85,17,3,17,0.91
2013-11-22,51.4,48.9,46.4,48.1,41.1,38.0,94,75,62,30.00,29.86,21,5,21,0.06
2013-11-23,58.5,50.2,42.4,41.5,39.4,36.8,84,67,52,30.13,29.99,18,2,18,0.00
2013-11-24,62.4,51.3,39.3,42.1,39.4,35.8,89,66,43,30.23,30.12,8,1,8,0.00
2013-11-25,68.1,53.3,39.3,45.5,40.1,36.0,89,65,32,30.28,30.18,12,1,12,0.00
2013-11-26,71.7,58.8,42.0,40.8,35.1,31.4,86,46,23,30.24,30.09,21,5,21,0.00
2013-11-27,69.6,62.3,55.9,34.7,33.3,31.5,42,34,25,30.10,29.89,20,5,20,0.00
2013-11-28,67.2,56.8,46.8,41.9,36.7,32.0,78,49,31,30.08,29.90,13,2,13,0.00
2013-11-29,60.0,53.1,47.4,50.2,45.3,38.6,85,75,60,30.21,30.08,14,1,14,0.04
2013-11-30,71.5,58.5,45.5,51.9,41.6,35.1,90,58,30,30.22,30.10,12,2,12,0.00
2013-12-1,74.9,58.8,46.3,43.3,35.1,22.5,73,46,16,30.26,30.13,8,0,8,0.00
2013-12-2,72.0,54.9,40.8,35.4,31.9,26.1,70,45,19,30.17,29.94,10,1,10,0.00
2013-12-3,62.9,52.2,40.4,49.2,42.0,32.1,87,69,45,29.94,29.75,16,2,16,0.00
2013-12-4,55.9,48.9,41.4,48.7,36.8,24.4,85,65,31,29.99,29.78,14,2,18,0.00
2013-12-5,53.8,45.2,37.5,37.3,34.5,30.4,86,68,42,30.14,29.98,9,1,9,0.00
2013-12-6,52.2,44.9,36.0,37.8,35.6,32.2,87,71,53,30.22,30.12,10,1,10,0.00
2013-12-7,48.1,42.4,37.0,45.9,38.3,33.2,94,85,76,30.16,30.03,13,1,13,0.31
2013-12-8,50.9,42.7,34.6,39.6,32.3,17.2,95,69,40,30.25,30.13,14,2,14,0.00
2013-12-9,52.7,35.3,31.4,27.0,-10.3,-99.9,72,24,10,30.38,30.23,20,-187,20,0.00
2013-12-10,62.3,39.5,32.3,20.8,-13.0,-99.9,48,18,10,30.34,30.14,24,-199,24,0.00
2013-12-11,67.3,45.1,36.4,21.4,-6.3,-99.9,53,18,11,30.22,30.14,17,-188,17,0.00
2013-12-12,65.8,52.8,40.6,34.3,24.1,15.2,63,35,16,30.24,30.14,12,2,12,0.00
2013-12-13,61.8,47.5,34.9,34.7,29.0,-99.9,81,54,27,30.27,30.15,11,-9,11,0.00
2013-12-14,68.8,55.1,40.8,31.6,21.7,16.0,68,30,14,30.37,30.24,14,2,14,0.00
2013-12-15,76.0,59.4,42.9,30.0,23.3,15.0,44,27,12,30.32,30.13,8,1,8,0.00
2013-12-16,82.9,64.5,48.5,34.0,28.5,20.3,47,28,10,30.19,30.09,16,2,16,0.00
2013-12-17,82.9,68.5,56.3,39.5,28.0,18.1,39,24,10,30.15,30.00,18,2,18,0.00
2013-12-18,71.0,59.8,49.9,46.0,35.7,26.8,84,43,24,30.00,29.84,12,2,12,0.00
2013-12-19,50.0,47.0,41.7,46.7,44.0,40.1,95,89,80,29.85,29.71,13,2,13,0.09
2013-12-20,59.4,46.7,37.7,43.5,38.6,28.5,97,78,32,30.00,29.78,19,2,19,0.01
2013-12-21,55.9,46.1,40.6,44.5,39.2,-99.9,94,80,62,30.13,29.96,10,-13,10,0.00
2013-12-22,67.3,41.1,35.6,45.0,12.3,-99.9,94,55,33,30.31,30.12,5,-190,7,0.00
2013-12-23,71.0,55.9,43.6,37.8,23.5,-99.9,71,36,25,30.36,30.24,14,-79,14,0.00
2013-12-24,77.2,53.9,42.9,40.4,14.8,-99.9,68,31,16,30.24,30.12,9,-135,9,0.00
2013-12-25,73.9,60.2,47.2,31.8,23.9,15.6,50,27,12,30.26,30.15,11,2,11,0.00
2013-12-26,73.3,60.0,43.2,25.3,11.2,0.9,38,17,6,30.24,30.13,29,2,29,0.00
2013-12-27,77.6,62.1,48.1,25.1,12.6,-1.7,35,16,5,30.20,30.07,17,2,17,0.00
2013-12-28,72.2,55.9,43.6,29.3,23.1,15.3,50,31,12,30.08,29.94,5,1,7,0.00
2013-12-29,69.0,55.0,38.8,26.2,13.8,1.4,58,24,7,30.20,30.02,25,3,25,0.00
2013-12-30,69.7,53.8,40.3,22.8,14.8,2.4,43,25,8,30.27,30.19,10,1,10,0.00
2013-12-31,72.0,52.5,36.7,26.0,20.3,5.9,53,33,8,30.25,30.11,8,1,8,0.00
2014-1-1,77.5,57.2,37.9,26.4,21.8,12.1,55,30,9,30.17,30.08,9,1,9,0.00
2014-1-2,77.5,62.4,47.8,29.7,25.2,20.6,42,26,12,30.14,30.01,14,2,14,0.00